Startpagina
METAR-TAF:

METAR-TAF

Vliegvelden :

Zeltweg Luchthaven Circuit

Zeltweg, Oostenrijk

breedte: 47-12N, lengte: 014-45E, hoogte: 677 m

Actueel weer

Dit bericht is 3 uur en het 6 minuten geleden gemaakt, om 23:50 UTC
Wind 1 kt uit het westnoordwesten
Temperatuur 4°C
Vochtigheid 93%
Druk 1025 hPa

METAR: LOXZ 192350Z 30001KT 20KM FEW300CI 04/03 Q1025 NOSIG

Tijdstip: 04:56 (02:56 UTC)


TAF: ontbreekt

Waarnemingen en weersverwachtingen van meer dan 4000 vliegvelden (METAR en TAF).

De beschikbare stations zijn de gele en rode punten op de kaart.

Ga met uw muis naar het station om de naam te zien.

Klik dan om waarnemingen en weersverwachtingen te zien.

kaart wijzigen: klik op de groene knoppen met een zwart kruis om in te zoomen, op de groene knop met een streepje om uit te zoomen of op de groene pijlen voor aangrenzende kaarten.


METAR-TAF: